CYBN

CFB Borden  Heliport

Borden, Ontario, Canada

CYBN 250100Z AUTO 20016G25KT 9SM CLR 09/M01 A2954 RMK SLP012

Observed Flight Rules
Nov-25 @ 01:00 UTC (44 minutes ago)
 
Visual Flight Rules
Wind Visibility Clouds
200° at 16 knots
 Gusting to 25 knots
9 miles
  • Clear skies
Temperatures Readings
Current 9°C / 48°F
Dewpoint -1°C / 30°F
Humidity 50%
Altimeter 29.54" Hg
Pressure 1001.2 hPa
Elevation 223
Observed Flight Rules
Nov-25 @ 01:00 UTC
(44 minutes ago)
 
VFR
Wind Visibility
200° at 16 knots
 Gusting to 25 knots
9 miles
Clouds
  • Clear skies
Temperature Dewpoint
9°C / 48°F -1°C / 30°F
Humidity Altimeter Pressure
50% 29.54" Hg 1001.2 hPa